Time;durP1;ratioP1;P1;durP2;ratioP2;P2;SDS_P1;SDS_P2;PMS_P1;PMS_P2;Temp;Humidity;BMP_temperature;BMP_pressure;BME280_temperature;BME280_humidity;BME280_pressure;Samples;Min_cycle;Max_cycle;Signal;HPM_P1;HPM_P2
2024/03/19 00:00:55;;;;;;;53.10;25.40;;;;;;;;;;4939548;29;20502;-88
2024/03/19 00:03:21;;;;;;;118.78;41.47;;;;;;;;;;4938617;29;20039;-90
2024/03/19 00:05:47;;;;;;;69.88;28.80;;;;;;;;;;4939772;29;20066;-89
2024/03/19 00:08:13;;;;;;;52.78;22.48;;;;;;;;;;4939519;29;20481;-90
2024/03/19 00:10:39;;;;;;;76.00;28.17;;;;;;;;;;4939624;29;20024;-89
2024/03/19 00:13:05;;;;;;;98.72;37.67;;;;;;;;;;4939546;29;20035;-89
2024/03/19 00:15:32;;;;;;;155.15;49.20;;;;;;;;;;4939563;29;20031;-90
2024/03/19 00:17:59;;;;;;;178.90;60.08;;;;;;;;;;4938928;29;20074;-89
2024/03/19 00:20:25;;;;;;;288.52;100.18;;;;;;;;;;4939275;29;20106;-89
2024/03/19 00:22:54;;;;;;;508.58;192.63;;;;;;;;;;4948581;28;20045;-90
2024/03/19 00:25:20;;;;;;;469.88;175.95;;;;;;;;;;4958409;28;20097;-90
2024/03/19 00:27:47;;;;;;;31.85;16.42;;;;;;;;;;4958509;28;20030;-90
2024/03/19 00:30:13;;;;;;;387.35;132.48;;;;;;;;;;4959486;28;20167;-89
2024/03/19 00:32:39;;;;;;;99.45;39.25;;;;;;;;;;4958800;28;20038;-90
2024/03/19 00:35:09;;;;;;;58.05;26.15;;;;;;;;;;4958850;28;20038;-88
2024/03/19 00:37:39;;;;;;;217.40;73.07;;;;;;;;;;4973621;28;20019;-90
2024/03/19 00:40:10;;;;;;;360.30;110.88;;;;;;;;;;4953551;29;20035;-89
2024/03/19 00:42:40;;;;;;;183.82;60.47;;;;;;;;;;4939212;29;20035;-90
2024/03/19 00:45:06;;;;;;;100.03;35.67;;;;;;;;;;4955609;28;20026;-88
2024/03/19 00:47:33;;;;;;;52.95;24.85;;;;;;;;;;4975637;28;20058;-90
2024/03/19 00:50:00;;;;;;;29.23;16.50;;;;;;;;;;4958289;28;20027;-89
2024/03/19 00:52:26;;;;;;;20.92;12.48;;;;;;;;;;4963844;28;20035;-88
2024/03/19 00:54:52;;;;;;;25.92;13.70;;;;;;;;;;4962244;28;20019;-90
2024/03/19 00:57:21;;;;;;;18.80;11.95;;;;;;;;;;4961827;28;20050;-90
2024/03/19 00:59:47;;;;;;;14.00;10.25;;;;;;;;;;4961827;28;20098;-90
2024/03/19 01:02:13;;;;;;;12.13;9.27;;;;;;;;;;4961914;28;20035;-90
2024/03/19 01:04:40;;;;;;;14.50;11.00;;;;;;;;;;4979051;28;20023;-89
2024/03/19 01:07:06;;;;;;;11.70;10.05;;;;;;;;;;4961861;28;20030;-89
2024/03/19 01:09:32;;;;;;;14.10;10.73;;;;;;;;;;4961650;28;20062;-88
2024/03/19 01:11:58;;;;;;;27.38;12.57;;;;;;;;;;4961437;28;20031;-89
2024/03/19 01:14:24;;;;;;;13.65;10.10;;;;;;;;;;4961563;28;20027;-89
2024/03/19 01:16:50;;;;;;;15.05;8.98;;;;;;;;;;4961876;28;20133;-89
2024/03/19 01:19:17;;;;;;;13.95;10.10;;;;;;;;;;4961806;28;20118;-89
2024/03/19 01:21:43;;;;;;;11.40;9.20;;;;;;;;;;4961554;28;20045;-89
2024/03/19 01:24:09;;;;;;;15.35;10.48;;;;;;;;;;4961314;28;20439;-89
2024/03/19 01:26:35;;;;;;;13.90;10.93;;;;;;;;;;4961517;28;20027;-88
2024/03/19 01:29:01;;;;;;;19.58;11.88;;;;;;;;;;4951130;29;20493;-89
2024/03/19 01:31:28;;;;;;;15.32;9.98;;;;;;;;;;4942279;29;20067;-89
2024/03/19 01:33:58;;;;;;;13.65;11.23;;;;;;;;;;4941999;29;20388;-88
2024/03/19 01:36:25;;;;;;;12.95;9.15;;;;;;;;;;4942032;29;20046;-89
2024/03/19 01:38:51;;;;;;;15.75;12.75;;;;;;;;;;4942486;29;20027;-88
2024/03/19 01:41:17;;;;;;;28.55;15.57;;;;;;;;;;4944677;29;20121;-89
2024/03/19 01:43:47;;;;;;;57.95;22.20;;;;;;;;;;4941767;29;20030;-89
2024/03/19 01:46:29;;;;;;;276.73;81.78;;;;;;;;;;4941644;29;20035;-88
2024/03/19 01:48:55;;;;;;;151.45;47.45;;;;;;;;;;4942025;29;20031;-89
2024/03/19 01:51:23;;;;;;;91.93;35.58;;;;;;;;;;4944922;28;20114;-88
2024/03/19 01:53:50;;;;;;;55.30;22.25;;;;;;;;;;4962102;28;20034;-90
2024/03/19 01:56:20;;;;;;;16.38;11.82;;;;;;;;;;4961885;28;20027;-90
2024/03/19 01:58:49;;;;;;;18.50;13.05;;;;;;;;;;4967139;28;20094;-88
2024/03/19 02:01:16;;;;;;;13.23;11.15;;;;;;;;;;4968874;29;20108;-89
2024/03/19 02:03:46;;;;;;;16.13;14.50;;;;;;;;;;4944160;29;20059;-89
2024/03/19 02:06:13;;;;;;;16.65;14.85;;;;;;;;;;4944082;29;20119;-89
2024/03/19 02:08:39;;;;;;;14.90;13.00;;;;;;;;;;4941785;29;20039;-88
2024/03/19 02:11:06;;;;;;;14.57;12.07;;;;;;;;;;4941766;29;20027;-88
2024/03/19 02:13:33;;;;;;;17.65;15.75;;;;;;;;;;4941307;29;20042;-89
2024/03/19 02:16:01;;;;;;;19.63;17.58;;;;;;;;;;4941704;29;20039;-87
2024/03/19 02:18:27;;;;;;;20.35;18.23;;;;;;;;;;4941262;29;20070;-88
2024/03/19 02:20:53;;;;;;;16.63;14.90;;;;;;;;;;4948453;28;20015;-89
2024/03/19 02:23:19;;;;;;;16.42;13.95;;;;;;;;;;4990335;28;20038;-89
2024/03/19 02:25:46;;;;;;;32.63;22.63;;;;;;;;;;4970729;28;20026;-88
2024/03/19 02:28:12;;;;;;;97.13;38.40;;;;;;;;;;4977473;28;20037;-89
2024/03/19 02:30:38;;;;;;;292.23;89.15;;;;;;;;;;4960384;28;20464;-88
2024/03/19 02:33:04;;;;;;;345.95;112.00;;;;;;;;;;4958796;28;20105;-89
2024/03/19 02:35:31;;;;;;;81.55;37.13;;;;;;;;;;4946835;28;20023;-90
2024/03/19 02:37:57;;;;;;;111.97;50.88;;;;;;;;;;4951706;28;20415;-89
2024/03/19 02:40:23;;;;;;;125.07;55.95;;;;;;;;;;4960439;28;20098;-89
2024/03/19 02:42:49;;;;;;;123.25;52.50;;;;;;;;;;4960248;28;20041;-90
2024/03/19 02:45:17;;;;;;;110.35;43.88;;;;;;;;;;4951978;29;20090;-88
2024/03/19 02:47:43;;;;;;;92.38;48.00;;;;;;;;;;4941907;29;20062;-89
2024/03/19 02:50:10;;;;;;;231.70;86.30;;;;;;;;;;4941196;29;20038;-88
2024/03/19 02:52:36;;;;;;;183.07;73.43;;;;;;;;;;4940816;29;20035;-89
2024/03/19 02:55:02;;;;;;;142.15;60.47;;;;;;;;;;4940762;29;20027;-90
2024/03/19 02:57:29;;;;;;;114.60;56.25;;;;;;;;;;4950493;28;20049;-89
2024/03/19 02:59:55;;;;;;;140.68;64.10;;;;;;;;;;4959948;28;20030;-90
2024/03/19 03:02:21;;;;;;;234.88;91.68;;;;;;;;;;4959779;28;20027;-89
2024/03/19 03:04:47;;;;;;;105.03;48.80;;;;;;;;;;4960123;28;20035;-89
2024/03/19 03:07:13;;;;;;;48.92;33.25;;;;;;;;;;4959934;28;20031;-89
2024/03/19 03:09:39;;;;;;;30.40;26.33;;;;;;;;;;4959886;28;20027;-89
2024/03/19 03:12:06;;;;;;;27.20;23.70;;;;;;;;;;4960169;28;20034;-89
2024/03/19 03:14:32;;;;;;;23.65;20.33;;;;;;;;;;4960342;28;20112;-89
2024/03/19 03:16:58;;;;;;;28.80;25.95;;;;;;;;;;4959458;28;20039;-90
2024/03/19 03:19:24;;;;;;;22.55;19.55;;;;;;;;;;4959597;28;20027;-90
2024/03/19 03:21:50;;;;;;;23.98;21.48;;;;;;;;;;4959592;28;20134;-90
2024/03/19 03:24:16;;;;;;;26.42;23.67;;;;;;;;;;4959293;28;20030;-90
2024/03/19 03:26:44;;;;;;;25.33;19.38;;;;;;;;;;4951482;29;20027;-89
2024/03/19 03:29:10;;;;;;;33.38;22.45;;;;;;;;;;4922173;29;20039;-90
2024/03/19 03:31:38;;;;;;;52.25;27.35;;;;;;;;;;4921943;29;20035;-90
2024/03/19 03:34:04;;;;;;;148.65;56.50;;;;;;;;;;4921117;29;20051;-90
2024/03/19 03:36:30;;;;;;;170.65;61.63;;;;;;;;;;4921288;29;20094;-90
2024/03/19 03:38:56;;;;;;;46.15;23.77;;;;;;;;;;4921103;29;20037;-90
2024/03/19 03:41:22;;;;;;;198.07;70.20;;;;;;;;;;4921334;29;20032;-90
2024/03/19 03:43:55;;;;;;;164.10;69.50;;;;;;;;;;4920764;29;20031;-89
2024/03/19 03:46:21;;;;;;;;;;;;;;;;;;4921046;29;20043;-90
2024/03/19 03:48:47;;;;;;;256.90;78.00;;;;;;;;;;4921620;29;19929;-90
2024/03/19 03:51:14;;;;;;;393.88;121.45;;;;;;;;;;4920939;29;20036;-90
2024/03/19 03:53:40;;;;;;;302.35;96.63;;;;;;;;;;4920889;29;20110;-90
2024/03/19 03:56:06;;;;;;;214.15;81.72;;;;;;;;;;4920678;29;20028;-90
2024/03/19 03:58:32;;;;;;;185.50;69.97;;;;;;;;;;4920969;29;20028;-90
2024/03/19 04:00:58;;;;;;;51.65;35.05;;;;;;;;;;4920390;29;20032;-89
2024/03/19 04:03:24;;;;;;;43.25;28.77;;;;;;;;;;4921813;28;20116;-90
2024/03/19 04:05:50;;;;;;;33.13;29.65;;;;;;;;;;4959909;28;20019;-92
2024/03/19 04:08:18;;;;;;;24.23;19.85;;;;;;;;;;4975017;28;20038;-90
2024/03/19 04:10:45;;;;;;;20.05;16.52;;;;;;;;;;4967417;28;20023;-90
2024/03/19 04:13:11;;;;;;;22.45;20.02;;;;;;;;;;4944790;29;20098;-89
2024/03/19 04:15:37;;;;;;;19.73;16.38;;;;;;;;;;4940266;29;20041;-89
2024/03/19 04:18:03;;;;;;;21.65;17.50;;;;;;;;;;4939736;29;20039;-89
2024/03/19 04:20:30;;;;;;;24.27;18.00;;;;;;;;;;4939405;29;20039;-88
2024/03/19 04:22:56;;;;;;;22.63;17.13;;;;;;;;;;4941734;28;20031;-90
2024/03/19 04:25:22;;;;;;;20.48;13.90;;;;;;;;;;4959054;28;20106;-90
2024/03/19 04:27:49;;;;;;;20.63;14.52;;;;;;;;;;4963028;28;20031;-89
2024/03/19 04:30:15;;;;;;;20.55;14.68;;;;;;;;;;4963235;28;20082;-90
2024/03/19 04:32:41;;;;;;;20.63;15.93;;;;;;;;;;4955663;29;20034;-89
2024/03/19 04:35:07;;;;;;;19.67;17.60;;;;;;;;;;4954140;28;20034;-90
2024/03/19 04:37:37;;;;;;;18.58;13.85;;;;;;;;;;4965386;28;20039;-90
2024/03/19 04:40:04;;;;;;;22.20;13.93;;;;;;;;;;4963191;28;20030;-90
2024/03/19 04:42:30;;;;;;;19.67;14.43;;;;;;;;;;4962902;28;20038;-89
2024/03/19 04:44:56;;;;;;;19.55;12.55;;;;;;;;;;4962561;28;20022;-90
2024/03/19 04:47:22;;;;;;;19.40;12.88;;;;;;;;;;4962743;28;20061;-90
2024/03/19 04:49:48;;;;;;;16.92;13.73;;;;;;;;;;4963029;28;20118;-90
2024/03/19 04:52:15;;;;;;;18.23;14.13;;;;;;;;;;4962463;28;20081;-90
2024/03/19 04:54:41;;;;;;;20.45;14.55;;;;;;;;;;4958105;29;20079;-90
2024/03/19 04:57:09;;;;;;;21.17;15.18;;;;;;;;;;4943480;29;20083;-90
2024/03/19 04:59:35;;;;;;;20.42;14.18;;;;;;;;;;4943088;29;20513;-91
2024/03/19 05:02:01;;;;;;;18.90;14.15;;;;;;;;;;4957119;28;20035;-91
2024/03/19 05:04:27;;;;;;;21.77;14.13;;;;;;;;;;4961858;28;20070;-88
2024/03/19 05:06:53;;;;;;;19.65;13.68;;;;;;;;;;4979443;28;20058;-86
2024/03/19 05:09:20;;;;;;;19.80;13.80;;;;;;;;;;4962196;28;20380;-87
2024/03/19 05:11:46;;;;;;;20.35;16.02;;;;;;;;;;4962098;28;20037;-88
2024/03/19 05:14:12;;;;;;;19.50;15.20;;;;;;;;;;4962184;28;20030;-89
2024/03/19 05:16:38;;;;;;;20.75;14.52;;;;;;;;;;4980414;23;20138;-90
2024/03/19 05:19:04;;;;;;;20.10;16.08;;;;;;;;;;4974875;28;20019;-88
2024/03/19 05:21:30;;;;;;;19.65;17.38;;;;;;;;;;4996340;28;20014;-90
2024/03/19 05:23:56;;;;;;;20.35;16.08;;;;;;;;;;4976240;28;20085;-90
2024/03/19 05:26:22;;;;;;;23.63;18.70;;;;;;;;;;4967031;28;20026;-89
2024/03/19 05:28:48;;;;;;;19.67;16.65;;;;;;;;;;4962411;28;20075;-89
2024/03/19 05:31:21;;;;;;;18.70;16.63;;;;;;;;;;4961607;28;20038;-89
2024/03/19 05:33:49;;;;;;;20.38;18.27;;;;;;;;;;4961573;28;20034;-89
2024/03/19 05:36:15;;;;;;;20.95;18.48;;;;;;;;;;4961525;28;20038;-90
2024/03/19 05:38:43;;;;;;;21.40;18.98;;;;;;;;;;4968027;28;20487;-90
2024/03/19 05:44:03;;;;;;;35.05;32.28;;;;;;;;;;4964917;28;20038;-89
2024/03/19 05:46:29;;;;;;;41.90;38.70;;;;;;;;;;4978562;28;20046;-91
2024/03/19 05:48:55;;;;;;;49.53;45.97;;;;;;;;;;4965078;28;20031;-91
2024/03/19 05:51:21;;;;;;;65.03;60.72;;;;;;;;;;4982776;28;20026;-90
2024/03/19 05:53:47;;;;;;;62.03;57.72;;;;;;;;;;4989937;28;20034;-91
2024/03/19 05:56:13;;;;;;;58.15;54.17;;;;;;;;;;4971935;28;20117;-92
2024/03/19 05:58:40;;;;;;;56.67;52.97;;;;;;;;;;4960804;28;20034;-90
2024/03/19 06:01:07;;;;;;;54.20;50.63;;;;;;;;;;4961745;28;20026;-94
2024/03/19 06:03:33;;;;;;;57.95;54.17;;;;;;;;;;4979758;28;20049;-94
2024/03/19 06:06:01;;;;;;;43.45;40.35;;;;;;;;;;4966563;28;20046;-90
2024/03/19 06:08:28;;;;;;;29.77;27.48;;;;;;;;;;4960529;28;20058;-88
2024/03/19 06:10:55;;;;;;;25.88;23.95;;;;;;;;;;4960834;28;20035;-89
2024/03/19 06:13:22;;;;;;;29.60;27.40;;;;;;;;;;4960692;28;20027;-88
2024/03/19 06:15:48;;;;;;;25.27;23.27;;;;;;;;;;4960856;28;20045;-87
2024/03/19 06:18:14;;;;;;;23.83;21.75;;;;;;;;;;4966038;28;20054;-89
2024/03/19 06:20:40;;;;;;;22.70;20.90;;;;;;;;;;4979859;28;20033;-89
2024/03/19 06:23:06;;;;;;;19.20;17.50;;;;;;;;;;4980077;28;20084;-89
2024/03/19 06:25:34;;;;;;;20.35;18.75;;;;;;;;;;4972438;28;20085;-90
2024/03/19 06:28:01;;;;;;;18.55;17.00;;;;;;;;;;4966165;28;20034;-90
2024/03/19 06:30:30;;;;;;;14.10;12.90;;;;;;;;;;4987685;28;20066;-90
2024/03/19 06:33:07;;;;;;;13.68;12.45;;;;;;;;;;4960494;28;20365;-90
2024/03/19 06:35:33;;;;;;;12.02;10.93;;;;;;;;;;4960936;28;20129;-90
2024/03/19 06:38:00;;;;;;;13.77;12.57;;;;;;;;;;4968969;28;20048;-90
2024/03/19 06:40:27;;;;;;;15.02;13.63;;;;;;;;;;4966627;28;20031;-90
2024/03/19 06:42:53;;;;;;;14.13;12.80;;;;;;;;;;4960105;28;20114;-91
2024/03/19 06:45:19;;;;;;;17.02;15.63;;;;;;;;;;4960734;28;20080;-90
2024/03/19 06:47:46;;;;;;;16.27;14.65;;;;;;;;;;4960181;28;20034;-89
2024/03/19 06:50:14;;;;;;;26.65;24.60;;;;;;;;;;4959829;28;20494;-90
2024/03/19 06:52:43;;;;;;;24.92;22.75;;;;;;;;;;4960517;28;20030;-89
2024/03/19 06:55:09;;;;;;;21.75;19.80;;;;;;;;;;4960197;28;20023;-91
2024/03/19 06:57:36;;;;;;;19.70;18.02;;;;;;;;;;4959594;28;20062;-89
2024/03/19 07:00:05;;;;;;;18.88;17.23;;;;;;;;;;4960505;28;20078;-90
2024/03/19 07:02:34;;;;;;;15.45;14.05;;;;;;;;;;4953695;28;20038;-90
2024/03/19 07:05:01;;;;;;;13.45;12.07;;;;;;;;;;4959610;28;20037;-91
2024/03/19 07:07:27;;;;;;;14.88;13.18;;;;;;;;;;4959792;28;20026;-90
2024/03/19 07:09:55;;;;;;;14.90;13.45;;;;;;;;;;4960230;28;20046;-88
2024/03/19 07:12:21;;;;;;;16.05;14.43;;;;;;;;;;4960919;28;20034;-90
2024/03/19 07:14:47;;;;;;;13.10;11.90;;;;;;;;;;4954924;28;20027;-88
2024/03/19 07:17:14;;;;;;;13.73;12.52;;;;;;;;;;4958859;28;20444;-89
2024/03/19 07:19:40;;;;;;;12.77;11.48;;;;;;;;;;4959808;28;20487;-88
2024/03/19 07:22:06;;;;;;;12.20;10.98;;;;;;;;;;4955776;28;20062;-88
2024/03/19 07:24:33;;;;;;;11.27;10.27;;;;;;;;;;4965524;28;20094;-91
2024/03/19 07:26:59;;;;;;;15.00;13.77;;;;;;;;;;4959079;28;20117;-89
2024/03/19 07:29:26;;;;;;;16.15;14.75;;;;;;;;;;4976547;28;20023;-89
2024/03/19 07:31:54;;;;;;;13.20;12.02;;;;;;;;;;4959321;28;20031;-90
2024/03/19 07:34:20;;;;;;;12.88;11.75;;;;;;;;;;4972129;28;20034;-91
2024/03/19 07:36:46;;;;;;;11.77;10.68;;;;;;;;;;4989582;28;20052;-92
2024/03/19 07:39:13;;;;;;;11.68;10.50;;;;;;;;;;4989292;28;20118;-91
2024/03/19 07:41:39;;;;;;;9.23;8.43;;;;;;;;;;4961394;28;20039;-90
2024/03/19 07:44:06;;;;;;;9.45;8.55;;;;;;;;;;4961226;28;20480;-91
2024/03/19 07:46:32;;;;;;;10.30;9.35;;;;;;;;;;4961375;28;20054;-90
2024/03/19 07:48:58;;;;;;;10.77;9.77;;;;;;;;;;4963307;28;20023;-89
2024/03/19 07:51:26;;;;;;;8.73;7.93;;;;;;;;;;4986736;28;20070;-89
2024/03/19 07:53:52;;;;;;;9.05;8.27;;;;;;;;;;4978631;28;20498;-91
2024/03/19 07:56:19;;;;;;;8.05;7.30;;;;;;;;;;4968945;28;20463;-92
2024/03/19 07:58:46;;;;;;;10.02;9.13;;;;;;;;;;4958580;28;20122;-93
2024/03/19 08:01:12;;;;;;;9.95;9.15;;;;;;;;;;4957862;28;20503;-94
2024/03/19 08:03:39;;;;;;;13.32;12.43;;;;;;;;;;4958668;28;20130;-90
2024/03/19 08:06:05;;;;;;;15.93;14.82;;;;;;;;;;4959036;28;20468;-91
2024/03/19 08:08:32;;;;;;;12.48;11.57;;;;;;;;;;4958723;28;20035;-92
2024/03/19 08:10:58;;;;;;;12.15;11.25;;;;;;;;;;4959777;28;20029;-91
2024/03/19 08:13:25;;;;;;;10.98;10.10;;;;;;;;;;4960949;28;20038;-89
2024/03/19 08:15:51;;;;;;;11.35;10.45;;;;;;;;;;4958752;28;20476;-91
2024/03/19 08:18:17;;;;;;;12.85;11.95;;;;;;;;;;4959333;28;20109;-91
2024/03/19 08:20:45;;;;;;;13.77;12.77;;;;;;;;;;4968051;28;20391;-90
2024/03/19 08:23:13;;;;;;;20.05;18.75;;;;;;;;;;4977724;28;20041;-91
2024/03/19 08:25:40;;;;;;;21.83;20.50;;;;;;;;;;4971661;28;20027;-94
2024/03/19 08:28:07;;;;;;;22.65;21.25;;;;;;;;;;4962284;28;20069;-92
2024/03/19 08:30:34;;;;;;;15.30;14.30;;;;;;;;;;4978275;28;20097;-93
2024/03/19 08:33:00;;;;;;;9.10;8.40;;;;;;;;;;4963073;28;20041;-92
2024/03/19 08:35:28;;;;;;;6.15;5.65;;;;;;;;;;4978724;28;20030;-92
2024/03/19 08:37:54;;;;;;;5.00;4.60;;;;;;;;;;4979580;28;20045;-92
2024/03/19 08:40:21;;;;;;;5.75;5.13;;;;;;;;;;4991690;28;20015;-89
2024/03/19 08:42:47;;;;;;;5.90;5.30;;;;;;;;;;4982423;28;20034;-91
2024/03/19 08:45:14;;;;;;;5.75;5.00;;;;;;;;;;4980476;28;20104;-91
2024/03/19 08:47:43;;;;;;;5.20;4.70;;;;;;;;;;4980542;28;20034;-91
2024/03/19 08:50:09;;;;;;;7.90;7.30;;;;;;;;;;4978370;28;20460;-90
2024/03/19 08:52:36;;;;;;;10.05;9.15;;;;;;;;;;4978048;28;20395;-92
2024/03/19 08:55:03;;;;;;;8.23;7.55;;;;;;;;;;4988914;28;20058;-92
2024/03/19 08:57:29;;;;;;;7.90;7.30;;;;;;;;;;4978296;28;20096;-90
2024/03/19 09:00:01;;;;;;;6.38;5.85;;;;;;;;;;4984585;28;20027;-90
2024/03/19 09:02:27;;;;;;;6.60;6.00;;;;;;;;;;4962412;28;20088;-91
2024/03/19 09:04:53;;;;;;;7.65;7.05;;;;;;;;;;4963096;28;20269;-90
2024/03/19 09:07:19;;;;;;;8.02;7.32;;;;;;;;;;4967156;28;20030;-91
2024/03/19 09:09:47;;;;;;;9.13;7.10;;;;;;;;;;4966676;28;20039;-91
2024/03/19 09:12:17;;;;;;;9.07;8.32;;;;;;;;;;4966553;28;20444;-92
2024/03/19 09:14:43;;;;;;;7.40;6.70;;;;;;;;;;4963482;28;20046;-90
2024/03/19 09:17:13;;;;;;;7.25;6.65;;;;;;;;;;4975633;28;20050;-92
2024/03/19 09:19:41;;;;;;;5.93;5.43;;;;;;;;;;4989509;28;20026;-90
2024/03/19 09:22:07;;;;;;;8.68;7.97;;;;;;;;;;4969090;28;20070;-90
2024/03/19 09:24:33;;;;;;;8.25;7.45;;;;;;;;;;4962258;28;20027;-91
2024/03/19 09:27:07;;;;;;;6.40;5.88;;;;;;;;;;4964334;28;20058;-95
2024/03/19 09:29:36;;;;;;;10.50;9.70;;;;;;;;;;4961824;28;20125;-95
2024/03/19 09:32:04;;;;;;;14.45;13.45;;;;;;;;;;4977431;28;20037;-91
2024/03/19 09:34:31;;;;;;;16.20;15.15;;;;;;;;;;4963582;28;20038;-90
2024/03/19 09:36:57;;;;;;;19.13;17.92;;;;;;;;;;4958916;28;21383;-89
2024/03/19 09:39:23;;;;;;;28.58;26.88;;;;;;;;;;4962002;28;20403;-91
2024/03/19 09:42:08;;;;;;;35.90;33.67;;;;;;;;;;4960960;28;20519;-89
2024/03/19 09:44:36;;;;;;;27.75;25.52;;;;;;;;;;4961463;28;20039;-89
2024/03/19 09:47:06;;;;;;;20.98;19.55;;;;;;;;;;4963620;28;20058;-89
2024/03/19 09:49:33;;;;;;;21.52;20.13;;;;;;;;;;4958038;28;20086;-90
2024/03/19 09:52:03;;;;;;;25.70;23.92;;;;;;;;;;4961918;28;20038;-89
2024/03/19 09:54:29;;;;;;;26.55;24.67;;;;;;;;;;4961172;28;20488;-91
2024/03/19 09:56:57;;;;;;;28.02;26.33;;;;;;;;;;4969806;28;20042;-89
2024/03/19 09:59:25;;;;;;;23.33;21.25;;;;;;;;;;4978779;28;20487;-90
2024/03/19 10:01:53;;;;;;;35.92;33.55;;;;;;;;;;4980240;28;20125;-90
2024/03/19 10:04:19;;;;;;;25.48;23.77;;;;;;;;;;4980185;28;20023;-90
2024/03/19 10:06:47;;;;;;;34.35;32.20;;;;;;;;;;4979746;28;20018;-91
2024/03/19 10:09:16;;;;;;;33.92;31.63;;;;;;;;;;4980081;28;20514;-90
2024/03/19 10:11:42;;;;;;;28.67;26.73;;;;;;;;;;4979515;28;20026;-90
2024/03/19 10:14:10;;;;;;;30.05;28.05;;;;;;;;;;4979599;28;20118;-90
2024/03/19 10:16:40;;;;;;;24.45;22.77;;;;;;;;;;4979785;28;20574;-88
2024/03/19 10:19:06;;;;;;;19.73;18.17;;;;;;;;;;4996930;28;20023;-90
2024/03/19 10:21:36;;;;;;;21.27;19.58;;;;;;;;;;4963684;28;20041;-90
2024/03/19 10:24:13;;;;;;;19.58;18.08;;;;;;;;;;4960209;28;20033;-88
2024/03/19 10:26:40;;;;;;;16.25;14.85;;;;;;;;;;4960762;28;20384;-88
2024/03/19 10:29:16;;;;;;;16.65;15.25;;;;;;;;;;4960292;28;20113;-92
2024/03/19 10:31:43;;;;;;;15.43;13.98;;;;;;;;;;4960753;28;20030;-91
2024/03/19 10:34:18;;;;;;;13.90;12.70;;;;;;;;;;4979960;28;20034;-95
2024/03/19 10:36:46;;;;;;;15.18;13.88;;;;;;;;;;4980004;28;20034;-89
2024/03/19 10:39:12;;;;;;;13.02;11.82;;;;;;;;;;4960735;28;20031;-89
2024/03/19 10:41:39;;;;;;;11.82;10.60;;;;;;;;;;4978427;28;20030;-92
2024/03/19 10:44:07;;;;;;;13.40;12.07;;;;;;;;;;4960568;28;20035;-89
2024/03/19 10:46:34;;;;;;;12.55;11.38;;;;;;;;;;4960426;28;20046;-88
2024/03/19 10:49:00;;;;;;;15.93;14.43;;;;;;;;;;4959863;28;20030;-90
2024/03/19 10:51:27;;;;;;;16.00;14.68;;;;;;;;;;4959734;28;20110;-90
2024/03/19 10:53:55;;;;;;;11.10;10.00;;;;;;;;;;4964249;28;20030;-92
2024/03/19 10:56:29;;;;;;;12.32;11.18;;;;;;;;;;4981486;28;20049;-89
2024/03/19 10:58:56;;;;;;;13.20;11.95;;;;;;;;;;4959911;28;20037;-90
2024/03/19 11:01:22;;;;;;;14.00;12.80;;;;;;;;;;4959805;28;20106;-90
2024/03/19 11:03:55;;;;;;;13.98;12.77;;;;;;;;;;4959823;28;20035;-89
2024/03/19 11:06:22;;;;;;;14.95;13.82;;;;;;;;;;4991477;28;20037;-90
2024/03/19 11:08:56;;;;;;;13.48;12.27;;;;;;;;;;4991162;28;20519;-90
2024/03/19 11:11:36;;;;;;;15.90;14.55;;;;;;;;;;4978810;28;20030;-90
2024/03/19 11:14:02;;;;;;;16.33;14.93;;;;;;;;;;4978694;28;20065;-90
2024/03/19 11:16:38;;;;;;;16.63;15.15;;;;;;;;;;4978539;28;20076;-90
2024/03/19 11:19:15;;;;;;;14.68;13.38;;;;;;;;;;4974237;28;20183;-88
2024/03/19 11:21:44;;;;;;;12.52;11.32;;;;;;;;;;4969506;28;20514;-88
2024/03/19 11:24:49;;;;;;;12.98;11.63;;;;;;;;;;4976508;28;20023;-90
2024/03/19 11:27:17;;;;;;;12.88;11.73;;;;;;;;;;4882492;29;20091;-91
2024/03/19 11:29:46;;;;;;;13.90;12.70;;;;;;;;;;4882725;29;20500;-92
2024/03/19 11:32:23;;;;;;;12.30;11.05;;;;;;;;;;4921339;28;20038;-90
2024/03/19 11:34:51;;;;;;;12.20;11.10;;;;;;;;;;4958857;28;20118;-90
2024/03/19 11:37:18;;;;;;;12.45;11.07;;;;;;;;;;4958978;28;20043;-91
2024/03/19 11:39:45;;;;;;;12.38;11.07;;;;;;;;;;4966556;28;20037;-91
2024/03/19 11:42:12;;;;;;;13.45;12.15;;;;;;;;;;4982862;28;20030;-90
2024/03/19 11:44:38;;;;;;;11.90;10.70;;;;;;;;;;4975262;28;20388;-89
2024/03/19 11:47:05;;;;;;;12.35;11.18;;;;;;;;;;4962523;28;20034;-90
2024/03/19 11:49:36;;;;;;;10.60;9.60;;;;;;;;;;4958523;28;20030;-91
2024/03/19 11:52:11;;;;;;;11.20;10.10;;;;;;;;;;4955213;28;20035;-90
2024/03/19 11:54:45;;;;;;;13.18;12.00;;;;;;;;;;4962581;28;20029;-90
2024/03/19 11:57:18;;;;;;;13.10;11.82;;;;;;;;;;4977758;28;20118;-90
2024/03/19 11:59:45;;;;;;;12.23;11.13;;;;;;;;;;4975343;28;20050;-89
2024/03/19 12:02:12;;;;;;;15.07;13.75;;;;;;;;;;4958556;28;20039;-90
2024/03/19 12:04:40;;;;;;;11.85;10.68;;;;;;;;;;4955912;28;20027;-89
2024/03/19 12:07:10;;;;;;;13.27;10.45;;;;;;;;;;4956585;28;20031;-91
2024/03/19 12:09:37;;;;;;;13.85;12.45;;;;;;;;;;4977345;28;20380;-90
2024/03/19 12:12:03;;;;;;;15.18;13.77;;;;;;;;;;4972333;28;20034;-91
2024/03/19 12:14:30;;;;;;;15.13;13.80;;;;;;;;;;4958432;28;20041;-90
2024/03/19 12:16:57;;;;;;;16.75;15.07;;;;;;;;;;4958339;28;20046;-90
2024/03/19 12:19:24;;;;;;;20.85;19.15;;;;;;;;;;4958483;28;20031;-91
2024/03/19 12:21:51;;;;;;;18.83;17.23;;;;;;;;;;4958469;28;20130;-89
2024/03/19 12:24:18;;;;;;;15.73;14.20;;;;;;;;;;4958302;28;20377;-91
2024/03/19 12:26:45;;;;;;;17.73;16.17;;;;;;;;;;4958304;28;20022;-90
2024/03/19 12:29:15;;;;;;;15.45;13.95;;;;;;;;;;4958622;28;20042;-90
2024/03/19 12:32:15;;;;;;;14.07;11.88;;;;;;;;;;4958516;28;20456;-90
2024/03/19 12:37:11;;;;;;;15.82;14.20;;;;;;;;;;4986947;28;20046;-91
2024/03/19 12:39:37;;;;;;;17.15;15.40;;;;;;;;;;4978087;28;20022;-92
2024/03/19 12:42:08;;;;;;;16.77;15.25;;;;;;;;;;4977685;28;20023;-89
2024/03/19 12:44:34;;;;;;;18.30;16.52;;;;;;;;;;4977401;28;20080;-91
2024/03/19 12:47:02;;;;;;;18.92;17.20;;;;;;;;;;4978626;28;20031;-89
2024/03/19 12:49:28;;;;;;;16.73;15.13;;;;;;;;;;4983847;28;20023;-90
2024/03/19 12:51:55;;;;;;;17.35;15.73;;;;;;;;;;4998022;28;20133;-90
2024/03/19 12:54:21;;;;;;;22.63;20.58;;;;;;;;;;4989475;28;20022;-90
2024/03/19 12:56:47;;;;;;;17.23;15.43;;;;;;;;;;4981086;28;20035;-89
2024/03/19 12:59:14;;;;;;;19.80;17.85;;;;;;;;;;4981084;28;20022;-90
2024/03/19 13:01:40;;;;;;;17.27;15.48;;;;;;;;;;4981135;28;20033;-89
2024/03/19 13:04:06;;;;;;;16.27;14.57;;;;;;;;;;4981147;28;20578;-92
2024/03/19 13:06:33;;;;;;;15.75;14.23;;;;;;;;;;4981397;28;20022;-90
2024/03/19 13:08:59;;;;;;;15.95;13.43;;;;;;;;;;4980966;28;20057;-91
2024/03/19 13:11:26;;;;;;;16.05;14.43;;;;;;;;;;4981215;28;20046;-90
2024/03/19 13:13:52;;;;;;;18.25;16.45;;;;;;;;;;4980976;28;20023;-91
2024/03/19 13:16:18;;;;;;;16.63;14.93;;;;;;;;;;4980398;28;20050;-89
2024/03/19 13:18:44;;;;;;;16.45;13.98;;;;;;;;;;4980986;28;20038;-89
2024/03/19 13:21:10;;;;;;;17.58;15.23;;;;;;;;;;4980836;28;20029;-90
2024/03/19 13:23:36;;;;;;;19.00;16.15;;;;;;;;;;4981174;28;20037;-90
2024/03/19 13:26:04;;;;;;;17.77;14.95;;;;;;;;;;4981583;28;20029;-90
2024/03/19 13:28:31;;;;;;;16.70;14.88;;;;;;;;;;4965314;28;20086;-91
2024/03/19 13:30:57;;;;;;;18.27;16.45;;;;;;;;;;4979822;28;20030;-90
2024/03/19 13:33:23;;;;;;;19.80;15.82;;;;;;;;;;4980972;28;20042;-91
2024/03/19 13:35:50;;;;;;;20.30;17.95;;;;;;;;;;4980490;28;20022;-91
2024/03/19 13:38:16;;;;;;;19.15;16.20;;;;;;;;;;4980315;28;20483;-90
2024/03/19 13:40:42;;;;;;;16.73;14.70;;;;;;;;;;4980507;28;20046;-90
2024/03/19 13:43:08;;;;;;;18.00;15.18;;;;;;;;;;4997927;28;20026;-92
2024/03/19 13:45:34;;;;;;;17.92;16.02;;;;;;;;;;4986710;28;20046;-89
2024/03/19 13:48:00;;;;;;;19.75;15.98;;;;;;;;;;4982105;28;20037;-90
2024/03/19 13:50:27;;;;;;;18.95;16.95;;;;;;;;;;4980341;28;20023;-88
2024/03/19 13:52:56;;;;;;;16.38;13.00;;;;;;;;;;4969983;28;20054;-90
2024/03/19 13:55:23;;;;;;;18.80;15.98;;;;;;;;;;4961577;28;20031;-90
2024/03/19 13:57:51;;;;;;;18.30;16.35;;;;;;;;;;4960101;28;20078;-91
2024/03/19 14:00:17;;;;;;;17.48;14.88;;;;;;;;;;4959907;28;20030;-90
2024/03/19 14:02:46;;;;;;;19.30;17.02;;;;;;;;;;4960855;28;20152;-93
2024/03/19 14:05:12;;;;;;;17.02;15.02;;;;;;;;;;4976797;28;20038;-90
2024/03/19 14:07:38;;;;;;;16.85;14.50;;;;;;;;;;4979877;28;20511;-92
2024/03/19 14:10:05;;;;;;;21.40;18.35;;;;;;;;;;4965809;28;20074;-91
2024/03/19 14:12:34;;;;;;;24.60;15.18;;;;;;;;;;4960592;28;20109;-90
2024/03/19 14:15:02;;;;;;;16.58;13.75;;;;;;;;;;4960464;28;20033;-91
2024/03/19 14:17:28;;;;;;;20.83;17.10;;;;;;;;;;4960098;28;20093;-89
2024/03/19 14:19:54;;;;;;;20.10;15.43;;;;;;;;;;4960239;28;20027;-91
2024/03/19 14:22:24;;;;;;;18.27;15.25;;;;;;;;;;4960089;28;20031;-89
2024/03/19 14:24:50;;;;;;;16.52;14.75;;;;;;;;;;4972976;28;20046;-90